Time;durP1;ratioP1;P1;durP2;ratioP2;P2;SDS_P1;SDS_P2;PMS_P1;PMS_P2;Temp;Humidity;BMP_temperature;BMP_pressure;BME280_temperature;BME280_humidity;BME280_pressure;Samples;Min_cycle;Max_cycle;Signal;HPM_P1;HPM_P2
2022/03/14 00:00:50;;;;;;;19.27;9.93;;;;;;;11.03;36.18;100014.47;4996028;28;20124;-83
2022/03/14 00:03:17;;;;;;;15.63;9.48;;;;;;;11.02;36.41;100020.78;4986471;28;20049;-83
2022/03/14 00:05:44;;;;;;;14.93;9.38;;;;;;;11.00;36.09;100022.72;4992717;28;20049;-83
2022/03/14 00:08:13;;;;;;;16.17;9.82;;;;;;;10.96;35.97;100022.13;4974583;28;20777;-83
2022/03/14 00:10:41;;;;;;;17.02;10.27;;;;;;;10.96;36.30;100030.09;4986077;28;20408;-83
2022/03/14 00:13:09;;;;;;;18.20;9.05;;;;;;;10.93;36.33;100030.38;4972456;28;20053;-83
2022/03/14 00:15:40;;;;;;;15.13;8.98;;;;;;;10.91;36.14;100042.94;4988976;28;20222;-83
2022/03/14 00:18:08;;;;;;;17.15;9.18;;;;;;;10.89;36.36;100041.38;4957843;28;20053;-83
2022/03/14 00:20:34;;;;;;;16.48;9.52;;;;;;;10.88;36.38;100045.88;4989335;28;20497;-83
2022/03/14 00:23:01;;;;;;;15.15;9.05;;;;;;;10.86;36.25;100050.47;4991737;28;20413;-83
2022/03/14 00:25:30;;;;;;;17.10;9.85;;;;;;;10.83;36.47;100056.03;4991724;28;20041;-83
2022/03/14 00:27:57;;;;;;;16.70;9.52;;;;;;;10.81;36.47;100057.97;5011916;28;20148;-83
2022/03/14 00:30:25;;;;;;;15.95;8.95;;;;;;;10.78;36.26;100068.88;4965192;28;20046;-83
2022/03/14 00:32:53;;;;;;;16.55;9.65;;;;;;;10.77;36.28;100069.88;4975621;28;20060;-83
2022/03/14 00:35:19;;;;;;;16.75;9.63;;;;;;;10.74;36.23;100076.28;4989349;28;20050;-83
2022/03/14 00:37:46;;;;;;;16.60;9.40;;;;;;;10.73;36.92;100085.19;4977298;28;20076;-83
2022/03/14 00:40:14;;;;;;;16.05;8.93;;;;;;;10.70;36.96;100088.13;4980169;28;20128;-83
2022/03/14 00:42:48;;;;;;;16.70;9.80;;;;;;;10.67;37.14;100101.66;4988941;28;20042;-82
2022/03/14 00:45:15;;;;;;;14.85;9.10;;;;;;;10.64;36.90;100100.13;4964263;28;20053;-83
2022/03/14 00:47:42;;;;;;;16.67;9.52;;;;;;;10.62;37.11;100098.56;4977600;28;20426;-83
2022/03/14 00:50:09;;;;;;;14.38;8.88;;;;;;;10.60;37.04;100106.66;4993803;28;20516;-83
2022/03/14 00:52:36;;;;;;;17.63;9.65;;;;;;;10.58;37.17;100110.41;4977956;28;20125;-83
2022/03/14 00:55:03;;;;;;;16.27;10.05;;;;;;;10.56;37.71;100118.53;4994925;28;20049;-82
2022/03/14 00:57:30;;;;;;;21.83;9.68;;;;;;;10.54;37.32;100130.25;5005682;28;20041;-82
2022/03/14 00:59:57;;;;;;;15.43;8.88;;;;;;;10.53;37.27;100131.19;5021135;28;20132;-83
2022/03/14 01:02:24;;;;;;;17.48;8.77;;;;;;;10.51;37.07;100139.31;5017895;28;20038;-82
2022/03/14 01:04:51;;;;;;;13.95;8.13;;;;;;;10.50;37.03;100144.72;4990337;28;20649;-82
2022/03/14 01:07:18;;;;;;;13.10;8.30;;;;;;;10.51;37.16;100154.41;4981976;28;20065;-82
2022/03/14 01:09:45;;;;;;;15.05;8.70;;;;;;;10.48;37.46;100155.50;4995683;28;20167;-82
2022/03/14 01:12:12;;;;;;;14.88;8.93;;;;;;;10.46;37.52;100165.41;5038556;28;20037;-83
2022/03/14 01:14:39;;;;;;;14.07;9.00;;;;;;;10.43;37.60;100173.59;5004742;28;20125;-83
2022/03/14 01:17:06;;;;;;;16.15;9.20;;;;;;;10.39;37.78;100180.97;4995390;28;20038;-83
2022/03/14 01:19:33;;;;;;;15.65;8.88;;;;;;;10.37;38.17;100193.53;5009050;28;20095;-83
2022/03/14 01:22:00;;;;;;;15.30;9.30;;;;;;;10.35;38.18;100200.75;4992004;28;20077;-83
2022/03/14 01:24:27;;;;;;;15.15;9.15;;;;;;;10.31;38.62;100202.00;4990326;28;20451;-83
2022/03/14 01:26:55;;;;;;;16.95;10.00;;;;;;;10.28;38.48;100210.22;4970041;28;20081;-83
2022/03/14 01:29:22;;;;;;;18.35;11.10;;;;;;;10.29;38.63;100217.19;4973255;28;20042;-83
2022/03/14 01:31:51;;;;;;;17.83;10.75;;;;;;;10.29;38.86;100224.31;4978597;28;20108;-83
2022/03/14 01:34:18;;;;;;;16.45;9.98;;;;;;;10.28;38.81;100231.44;4991074;28;20042;-83
2022/03/14 01:36:44;;;;;;;17.42;9.13;;;;;;;10.26;38.73;100237.81;5013621;28;20037;-83
2022/03/14 01:39:11;;;;;;;17.80;9.25;;;;;;;10.20;38.91;100242.66;4994610;28;20116;-83
2022/03/14 01:41:38;;;;;;;16.75;10.32;;;;;;;10.22;38.84;100247.81;5038663;28;20432;-83
2022/03/14 01:44:05;;;;;;;15.57;9.15;;;;;;;10.22;38.67;100253.13;4980675;28;20045;-83
2022/03/14 01:46:32;;;;;;;19.08;9.77;;;;;;;10.19;38.78;100256.88;5054749;28;20144;-82
2022/03/14 01:49:00;;;;;;;18.52;9.55;;;;;;;10.16;38.77;100262.44;5009888;28;20048;-83
2022/03/14 01:51:26;;;;;;;18.42;9.50;;;;;;;10.17;39.18;100269.41;5003308;28;20042;-83
2022/03/14 01:53:54;;;;;;;16.00;9.13;;;;;;;10.17;39.25;100263.28;5015040;28;20500;-83
2022/03/14 01:56:20;;;;;;;15.75;9.75;;;;;;;10.18;39.14;100270.28;4973207;28;20046;-83
2022/03/14 01:58:48;;;;;;;18.42;10.00;;;;;;;10.16;39.08;100283.66;4978999;28;20045;-83
2022/03/14 02:01:14;;;;;;;20.48;10.00;;;;;;;10.15;39.48;100281.97;4970268;28;20042;-83
2022/03/14 02:03:42;;;;;;;16.17;9.90;;;;;;;10.14;40.05;100290.06;4974335;28;20049;-83
2022/03/14 02:06:10;;;;;;;16.15;8.75;;;;;;;10.12;40.02;100303.44;4973266;28;20509;-83
2022/03/14 02:08:37;;;;;;;17.45;9.90;;;;;;;10.11;39.98;100295.63;4977731;28;20077;-83
2022/03/14 02:11:03;;;;;;;18.00;10.00;;;;;;;10.08;40.05;100311.78;4964089;28;20081;-83
2022/03/14 02:13:30;;;;;;;15.60;9.48;;;;;;;9.98;40.08;100317.81;4957612;28;20406;-83
2022/03/14 02:15:57;;;;;;;20.80;9.95;;;;;;;9.97;40.59;100325.88;4991748;28;20052;-83
2022/03/14 02:18:24;;;;;;;15.77;10.27;;;;;;;9.96;40.76;100333.00;4989280;28;20137;-82
2022/03/14 02:20:51;;;;;;;18.00;10.07;;;;;;;9.94;40.71;100332.25;4999645;28;20046;-83
2022/03/14 02:23:18;;;;;;;19.20;9.73;;;;;;;9.94;40.69;100334.91;4949938;28;20427;-83
2022/03/14 02:25:52;;;;;;;17.65;9.80;;;;;;;9.90;40.87;100332.63;4987413;28;20042;-82
2022/03/14 02:28:22;;;;;;;16.30;9.85;;;;;;;9.98;40.79;100335.53;5042705;28;20049;-83
2022/03/14 02:30:50;;;;;;;17.73;9.80;;;;;;;9.99;40.90;100339.88;5021325;28;20034;-83
2022/03/14 02:33:17;;;;;;;15.75;9.32;;;;;;;10.00;41.51;100341.56;5055392;28;20041;-83
2022/03/14 02:35:44;;;;;;;17.75;10.52;;;;;;;10.04;42.45;100348.31;5009540;28;20406;-82
2022/03/14 02:38:17;;;;;;;22.52;10.25;;;;;;;10.07;43.32;100355.19;5005988;28;20408;-83
2022/03/14 02:40:47;;;;;;;12.23;8.43;;;;;;;10.09;44.40;100362.06;4972005;28;20049;-83
2022/03/14 02:43:24;;;;;;;11.30;6.45;;;;;;;10.11;48.11;100364.59;5029653;28;20060;-82
2022/03/14 02:45:52;;;;;;;8.85;5.82;;;;;;;10.16;48.21;100368.59;5038358;28;20493;-83
2022/03/14 02:48:23;;;;;;;5.75;3.95;;;;;;;10.22;50.57;100372.56;4991206;28;20114;-83
2022/03/14 02:50:53;;;;;;;6.53;4.13;;;;;;;10.24;50.85;100381.25;4976147;28;20052;-83
2022/03/14 02:53:21;;;;;;;5.15;3.70;;;;;;;10.26;51.46;100389.94;4967801;28;20046;-83
2022/03/14 02:55:48;;;;;;;5.32;3.67;;;;;;;10.29;50.88;100399.50;5003498;28;20046;-83
2022/03/14 02:58:15;;;;;;;4.68;3.00;;;;;;;10.34;52.38;100395.53;4987189;28;20045;-82
2022/03/14 03:00:42;;;;;;;5.72;3.40;;;;;;;10.36;52.23;100412.19;4949690;28;20058;-83
2022/03/14 03:03:11;;;;;;;3.60;2.60;;;;;;;10.37;51.70;100405.91;4971585;28;20055;-83
2022/03/14 03:05:43;;;;;;;3.15;2.00;;;;;;;10.38;50.98;100409.38;4999607;28;20045;-83
2022/03/14 03:08:11;;;;;;;3.58;2.40;;;;;;;10.42;53.60;100410.84;4946135;28;20261;-82
2022/03/14 03:10:41;;;;;;;2.63;1.95;;;;;;;10.42;53.67;100416.16;4959484;28;20053;-83
2022/03/14 03:13:10;;;;;;;2.53;1.70;;;;;;;10.43;53.93;100423.16;5008927;28;20046;-83
2022/03/14 03:15:37;;;;;;;2.53;1.98;;;;;;;10.42;54.68;100427.63;4981655;28;20059;-83
2022/03/14 03:18:05;;;;;;;2.60;2.08;;;;;;;10.45;57.35;100423.88;4979692;28;20049;-83
2022/03/14 03:20:32;;;;;;;3.42;2.05;;;;;;;10.39;56.09;100419.91;4989406;28;20042;-82
2022/03/14 03:22:59;;;;;;;2.25;1.77;;;;;;;10.41;55.96;100431.25;4967402;28;20050;-83
2022/03/14 03:25:25;;;;;;;3.03;1.73;;;;;;;10.41;55.71;100431.25;4987423;28;20046;-83
2022/03/14 03:27:52;;;;;;;2.67;1.65;;;;;;;10.42;55.11;100443.53;5014992;28;20050;-83
2022/03/14 03:30:23;;;;;;;3.00;1.48;;;;;;;10.43;53.96;100461.19;4990619;28;20540;-83
2022/03/14 03:32:50;;;;;;;2.92;1.88;;;;;;;10.45;55.78;100452.25;5004842;28;20042;-83
2022/03/14 03:35:17;;;;;;;2.75;1.80;;;;;;;10.39;56.95;100448.25;4980112;28;20052;-83
2022/03/14 03:37:44;;;;;;;1.90;1.40;;;;;;;10.42;54.84;100463.94;4993418;28;20551;-83
2022/03/14 03:40:11;;;;;;;2.50;2.10;;;;;;;10.45;55.75;100474.31;4970406;28;20046;-83
2022/03/14 03:42:38;;;;;;;2.50;1.88;;;;;;;10.40;57.89;100481.81;4983506;28;20057;-83
2022/03/14 03:45:05;;;;;;;2.17;1.65;;;;;;;10.39;57.43;100480.97;4986431;28;20068;-83
2022/03/14 03:47:32;;;;;;;1.48;1.05;;;;;;;10.40;56.88;100481.81;4985615;28;20041;-83
2022/03/14 03:49:59;;;;;;;1.60;1.50;;;;;;;10.41;57.34;100483.50;4994697;28;20096;-84
2022/03/14 03:52:26;;;;;;;1.77;1.33;;;;;;;10.39;57.54;100488.94;5005737;28;20069;-83
2022/03/14 03:54:53;;;;;;;1.60;1.30;;;;;;;10.41;56.93;100487.00;5005471;28;20050;-83
2022/03/14 03:57:20;;;;;;;2.60;1.50;;;;;;;10.41;57.54;100494.97;4992046;28;20041;-83
2022/03/14 03:59:46;;;;;;;4.30;1.65;;;;;;;10.42;57.22;100501.97;4997323;28;20405;-82
2022/03/14 04:02:16;;;;;;;4.28;1.98;;;;;;;10.43;57.63;100510.75;5004803;28;20132;-83
2022/03/14 04:04:43;;;;;;;3.20;1.70;;;;;;;10.42;57.80;100522.34;4993020;28;20091;-83
2022/03/14 04:07:10;;;;;;;2.75;1.70;;;;;;;10.40;57.64;100532.25;4989759;28;20049;-83
2022/03/14 04:09:37;;;;;;;1.77;1.58;;;;;;;10.42;56.84;100541.78;4976199;28;20113;-82
2022/03/14 04:12:04;;;;;;;2.08;1.20;;;;;;;10.42;56.61;100547.09;4987027;28;20046;-83
2022/03/14 04:14:30;;;;;;;2.30;1.55;;;;;;;10.43;57.00;100555.91;4995833;28;20052;-83
2022/03/14 04:17:01;;;;;;;3.70;1.80;;;;;;;10.42;56.71;100554.22;5002100;28;20087;-83
2022/03/14 04:19:29;;;;;;;3.10;1.73;;;;;;;10.42;57.08;100557.72;4983600;28;20061;-83
2022/03/14 04:21:56;;;;;;;2.50;1.85;;;;;;;10.42;57.54;100556.88;5002625;28;20711;-83
2022/03/14 04:24:24;;;;;;;2.83;1.80;;;;;;;10.42;58.32;100570.16;5023736;28;20054;-83
2022/03/14 04:26:51;;;;;;;1.85;1.65;;;;;;;10.41;58.20;100569.31;5002116;28;20091;-83
2022/03/14 04:29:18;;;;;;;2.67;1.85;;;;;;;10.39;58.88;100567.72;5008682;28;20045;-82
2022/03/14 04:31:45;;;;;;;3.13;1.90;;;;;;;10.42;58.88;100580.78;5025995;28;20073;-83
2022/03/14 04:34:12;;;;;;;4.40;1.58;;;;;;;10.41;59.29;100592.38;5010105;28;20058;-83
2022/03/14 04:36:39;;;;;;;3.15;1.50;;;;;;;10.40;59.63;100593.31;4996942;28;20046;-83
2022/03/14 04:39:06;;;;;;;2.90;1.98;;;;;;;10.39;59.52;100605.75;4996108;28;20045;-83
2022/03/14 04:41:36;;;;;;;3.95;2.00;;;;;;;10.39;59.76;100600.44;4990431;28;20100;-82
2022/03/14 04:44:03;;;;;;;4.63;1.98;;;;;;;10.38;60.29;100598.75;4996034;28;20405;-83
2022/03/14 04:46:30;;;;;;;5.63;1.75;;;;;;;10.36;60.01;100602.47;4951947;28;20428;-82
2022/03/14 04:48:57;;;;;;;4.20;2.00;;;;;;;10.36;60.31;100602.47;4967599;28;20046;-83
2022/03/14 04:51:24;;;;;;;5.32;2.00;;;;;;;10.35;60.01;100614.88;4988486;28;20099;-83
2022/03/14 04:53:51;;;;;;;3.13;1.92;;;;;;;10.35;60.02;100619.34;4988410;28;20057;-83
2022/03/14 04:56:18;;;;;;;2.67;1.73;;;;;;;10.34;60.39;100626.47;4991940;28;20046;-82
2022/03/14 04:58:45;;;;;;;3.67;1.98;;;;;;;10.34;59.63;100630.94;4988560;28;20915;-83
2022/03/14 05:01:12;;;;;;;4.38;2.50;;;;;;;10.34;59.35;100637.09;4953439;28;20132;-82
2022/03/14 05:03:39;;;;;;;4.00;2.95;;;;;;;10.35;60.03;100643.25;4983374;28;20512;-83
2022/03/14 05:06:06;;;;;;;3.58;2.60;;;;;;;10.32;60.09;100636.38;4999284;28;20391;-83
2022/03/14 05:08:33;;;;;;;6.32;3.60;;;;;;;10.33;60.33;100643.38;4986341;28;20468;-83
2022/03/14 05:11:00;;;;;;;5.40;3.15;;;;;;;10.33;60.19;100645.16;5036349;28;20049;-79
2022/03/14 05:13:26;;;;;;;5.18;4.00;;;;;;;10.33;59.85;100647.81;5005365;28;20480;-80
2022/03/14 05:15:53;;;;;;;7.05;4.88;;;;;;;10.33;60.08;100647.81;5024618;28;20052;-80
2022/03/14 05:18:20;;;;;;;6.75;4.75;;;;;;;10.32;60.50;100656.75;5032888;28;20507;-81
2022/03/14 05:20:47;;;;;;;6.15;5.03;;;;;;;10.32;59.83;100654.09;5000617;28;20042;-79
2022/03/14 05:23:14;;;;;;;5.80;4.35;;;;;;;10.30;59.80;100670.13;5000236;28;20493;-79
2022/03/14 05:25:42;;;;;;;15.70;7.53;;;;;;;10.30;60.53;100661.31;4980827;28;20052;-80
2022/03/14 05:28:10;;;;;;;10.13;6.35;;;;;;;10.30;60.15;100663.97;5013912;28;20747;-79
2022/03/14 05:30:36;;;;;;;11.95;6.00;;;;;;;10.27;61.20;100666.84;5024489;28;20059;-80
2022/03/14 05:33:03;;;;;;;10.43;6.18;;;;;;;10.28;60.83;100677.38;5008100;28;20060;-80
2022/03/14 05:35:30;;;;;;;11.38;6.03;;;;;;;10.27;60.63;100686.25;5001769;28;20058;-79
2022/03/14 05:37:57;;;;;;;9.50;5.30;;;;;;;10.27;60.31;100682.75;5027823;28;20048;-80
2022/03/14 05:40:23;;;;;;;8.60;5.30;;;;;;;10.26;60.33;100681.09;5046857;28;20048;-79
2022/03/14 05:42:50;;;;;;;10.05;6.05;;;;;;;10.26;60.42;100686.41;4999071;28;20056;-79
2022/03/14 05:45:18;;;;;;;13.45;5.43;;;;;;;10.26;60.20;100683.75;5026298;28;20052;-79
2022/03/14 05:47:46;;;;;;;7.97;5.30;;;;;;;10.26;59.94;100683.75;5024593;28;20520;-80
2022/03/14 05:50:13;;;;;;;12.98;5.47;;;;;;;10.25;59.94;100674.06;5017279;28;20123;-80
2022/03/14 05:52:41;;;;;;;11.60;5.50;;;;;;;10.27;59.90;100688.06;4994245;28;20053;-79
2022/03/14 05:55:08;;;;;;;8.82;4.93;;;;;;;10.28;60.29;100689.78;4971264;28;20421;-80
2022/03/14 05:57:35;;;;;;;16.10;9.10;;;;;;;10.32;63.77;100691.28;4991824;28;20154;-79
2022/03/14 06:00:06;;;;;;;9.40;5.07;;;;;;;10.17;61.21;100688.72;4996047;28;20042;-79
2022/03/14 06:02:46;;;;;;;11.80;7.15;;;;;;;10.16;61.68;100696.84;5033909;28;20049;-79
2022/03/14 06:05:14;;;;;;;12.57;7.32;;;;;;;10.18;60.73;100706.38;5028166;28;20045;-78
2022/03/14 06:07:41;;;;;;;13.23;6.75;;;;;;;10.20;60.80;100712.44;5009417;28;20053;-79
2022/03/14 06:10:09;;;;;;;10.10;5.50;;;;;;;10.18;61.16;100724.94;4994164;28;20404;-79
2022/03/14 06:12:36;;;;;;;10.25;5.50;;;;;;;10.18;61.02;100724.13;5036956;28;20557;-80
2022/03/14 06:15:04;;;;;;;9.45;5.15;;;;;;;10.22;61.90;100726.41;5019560;28;20045;-80
2022/03/14 06:17:31;;;;;;;6.78;4.38;;;;;;;10.21;61.42;100727.38;5007928;28;20044;-80
2022/03/14 06:19:58;;;;;;;9.60;4.32;;;;;;;10.17;61.29;100731.19;5017323;28;20045;-81
2022/03/14 06:22:24;;;;;;;7.07;3.88;;;;;;;10.17;61.84;100749.78;5016819;28;20042;-81
2022/03/14 06:24:51;;;;;;;5.35;3.50;;;;;;;10.16;61.36;100756.06;5016188;28;20041;-80
2022/03/14 06:27:20;;;;;;;5.65;4.00;;;;;;;10.17;61.74;100760.41;5010854;28;20457;-80
2022/03/14 06:29:52;;;;;;;8.60;3.72;;;;;;;10.17;61.16;100762.22;5010262;28;20041;-79
2022/03/14 06:32:20;;;;;;;7.93;3.42;;;;;;;10.18;61.76;100778.03;5033543;28;20049;-79
2022/03/14 06:34:46;;;;;;;10.20;3.72;;;;;;;10.15;61.73;100774.75;5023369;28;20054;-80
2022/03/14 06:37:15;;;;;;;8.80;3.80;;;;;;;10.15;61.41;100780.91;5002823;28;20164;-81
2022/03/14 06:39:43;;;;;;;6.55;3.40;;;;;;;10.15;61.68;100785.34;5020932;28;20068;-81
2022/03/14 06:42:10;;;;;;;5.65;3.85;;;;;;;10.16;61.71;100781.75;5028692;28;20061;-81
2022/03/14 06:44:41;;;;;;;5.82;3.55;;;;;;;10.14;62.16;100787.16;5006619;28;20125;-80
2022/03/14 06:47:12;;;;;;;5.93;3.83;;;;;;;10.12;62.61;100794.38;4986617;28;20140;-80
2022/03/14 06:49:42;;;;;;;5.85;2.75;;;;;;;10.15;62.22;100793.31;4985187;28;20148;-79
2022/03/14 06:52:09;;;;;;;7.43;3.15;;;;;;;10.12;62.19;100794.38;4983768;28;20057;-79
2022/03/14 06:54:37;;;;;;;4.68;3.00;;;;;;;10.12;61.93;100798.84;5001415;28;20498;-80
2022/03/14 06:57:08;;;;;;;5.28;2.55;;;;;;;10.13;62.04;100801.41;4997641;28;20045;-80
2022/03/14 06:59:35;;;;;;;6.85;2.50;;;;;;;10.15;61.79;100804.81;5003877;28;20042;-80
2022/03/14 07:02:03;;;;;;;6.55;2.17;;;;;;;10.14;62.08;100803.09;4990674;28;20075;-80
2022/03/14 07:04:30;;;;;;;4.18;2.22;;;;;;;10.16;62.28;100806.50;5003809;28;20064;-79
2022/03/14 07:06:58;;;;;;;11.85;2.30;;;;;;;10.14;62.50;100800.44;5000651;28;20497;-79
2022/03/14 07:09:25;;;;;;;7.30;2.65;;;;;;;10.16;62.16;100795.88;5005335;28;20104;-81
2022/03/14 07:11:53;;;;;;;7.03;2.90;;;;;;;10.16;62.05;100810.94;4998038;28;20042;-81
2022/03/14 07:14:20;;;;;;;7.32;3.30;;;;;;;10.17;62.47;100810.81;5009852;28;20054;-80
2022/03/14 07:16:47;;;;;;;8.13;2.53;;;;;;;10.19;62.66;100813.38;4981493;28;20045;-80
2022/03/14 07:19:14;;;;;;;7.13;2.45;;;;;;;10.19;62.55;100819.53;4983632;28;20092;-79
2022/03/14 07:21:41;;;;;;;5.82;2.80;;;;;;;10.20;63.20;100825.69;4965617;28;20053;-79
2022/03/14 07:24:08;;;;;;;4.30;1.95;;;;;;;10.20;62.81;100826.56;4997157;28;20049;-81
2022/03/14 07:26:35;;;;;;;4.93;1.83;;;;;;;10.18;63.50;100830.28;4987298;28;20811;-79
2022/03/14 07:29:02;;;;;;;6.72;2.00;;;;;;;10.19;63.25;100839.94;5002948;28;20065;-80
2022/03/14 07:31:28;;;;;;;8.20;2.08;;;;;;;10.22;63.63;100835.22;5005782;28;20485;-80
2022/03/14 07:33:55;;;;;;;6.25;2.40;;;;;;;10.21;63.66;100853.94;4995340;28;20547;-80
2022/03/14 07:36:23;;;;;;;3.70;1.58;;;;;;;10.22;63.04;100853.81;4993230;28;20046;-80
2022/03/14 07:38:51;;;;;;;4.90;2.03;;;;;;;10.29;63.98;100856.09;4995115;28;20052;-80
2022/03/14 07:41:17;;;;;;;4.07;1.83;;;;;;;10.22;63.68;100859.13;5002858;28;20083;-80
2022/03/14 07:43:44;;;;;;;3.50;1.58;;;;;;;10.25;62.43;100863.38;5001149;28;20449;-79
2022/03/14 07:46:11;;;;;;;4.50;1.23;;;;;;;10.26;62.83;100866.91;5007806;28;20405;-80
2022/03/14 07:48:38;;;;;;;5.10;1.60;;;;;;;10.25;62.69;100870.50;5001627;28;20041;-81
2022/03/14 07:51:05;;;;;;;8.23;1.90;;;;;;;10.27;62.32;100879.19;4988449;28;20107;-80
2022/03/14 07:53:31;;;;;;;5.20;1.60;;;;;;;10.26;62.80;100893.44;4983940;28;20046;-78
2022/03/14 07:55:58;;;;;;;3.42;1.30;;;;;;;10.26;62.52;100898.75;5003607;28;20042;-80
2022/03/14 07:58:27;;;;;;;6.40;1.58;;;;;;;10.25;62.61;100897.88;4974325;28;20048;-79
2022/03/14 08:00:57;;;;;;;4.82;1.77;;;;;;;10.23;62.56;100905.13;5004399;28;20041;-80
2022/03/14 08:03:25;;;;;;;4.50;1.67;;;;;;;10.22;62.66;100906.06;4998878;28;20129;-80
2022/03/14 08:05:58;;;;;;;3.92;1.77;;;;;;;10.22;62.68;100914.03;5000452;28;20054;-79
2022/03/14 08:08:27;;;;;;;3.47;1.60;;;;;;;10.24;63.04;100913.94;4998823;28;20045;-80
2022/03/14 08:10:54;;;;;;;7.10;1.67;;;;;;;10.21;62.48;100922.97;5022144;28;20485;-79
2022/03/14 08:13:22;;;;;;;6.10;2.15;;;;;;;10.20;62.80;100927.41;4999122;28;20054;-79
2022/03/14 08:15:49;;;;;;;3.75;1.77;;;;;;;10.22;62.61;100935.25;4990181;28;20056;-80
2022/03/14 08:18:16;;;;;;;7.30;2.25;;;;;;;10.21;62.42;100931.75;5011585;28;20497;-79
2022/03/14 08:21:01;;;;;;;6.90;2.05;;;;;;;10.21;62.72;100955.66;5014883;28;20038;-79
2022/03/14 08:23:32;;;;;;;6.80;2.65;;;;;;;10.19;62.27;100946.09;4982898;28;20445;-80
2022/03/14 08:26:07;;;;;;;5.88;2.65;;;;;;;10.21;62.56;100955.66;4953775;28;20056;-80
2022/03/14 08:28:34;;;;;;;3.65;2.25;;;;;;;10.22;62.49;100962.66;5003233;28;20128;-80
2022/03/14 08:31:02;;;;;;;5.18;2.05;;;;;;;10.21;63.00;100960.13;5000201;28;20108;-80
2022/03/14 08:33:30;;;;;;;3.55;2.40;;;;;;;10.27;63.62;100967.66;4998424;28;20042;-80
2022/03/14 08:36:00;;;;;;;4.35;2.50;;;;;;;10.21;62.71;100966.28;4997942;28;20590;-80
2022/03/14 08:38:27;;;;;;;6.20;2.22;;;;;;;10.22;62.86;100970.63;4990208;28;20434;-80
2022/03/14 08:40:55;;;;;;;3.83;1.70;;;;;;;10.25;62.79;100976.66;4992931;28;20129;-80
2022/03/14 08:43:22;;;;;;;5.72;2.05;;;;;;;10.21;62.82;100976.03;4993886;28;20544;-80
2022/03/14 08:45:50;;;;;;;3.45;1.60;;;;;;;10.22;62.61;100985.69;4999423;28;20398;-78
2022/03/14 08:48:22;;;;;;;3.60;1.55;;;;;;;10.20;62.17;100976.97;5002220;28;20048;-78
2022/03/14 08:50:49;;;;;;;4.25;1.88;;;;;;;10.24;62.35;100986.44;5006640;28;20081;-80
2022/03/14 08:53:16;;;;;;;6.00;2.38;;;;;;;10.26;62.49;100987.19;5007922;28;20065;-80
2022/03/14 08:55:44;;;;;;;2.53;1.90;;;;;;;10.33;62.71;100987.63;4981750;28;20072;-80
2022/03/14 08:58:10;;;;;;;5.07;2.15;;;;;;;10.30;62.99;100995.81;5008974;28;20073;-80
2022/03/14 09:00:38;;;;;;;6.20;2.75;;;;;;;10.27;62.88;100991.53;4985196;28;20401;-80
2022/03/14 09:03:06;;;;;;;7.68;3.00;;;;;;;10.28;62.86;100997.72;4972378;28;20050;-80
2022/03/14 09:05:33;;;;;;;6.93;2.90;;;;;;;10.35;63.12;100994.53;4963098;28;20406;-80
2022/03/14 09:08:01;;;;;;;4.97;3.15;;;;;;;10.32;63.03;100999.22;5001141;28;20054;-79
2022/03/14 09:10:28;;;;;;;6.00;2.97;;;;;;;10.29;62.67;101002.94;4990181;28;20097;-79
2022/03/14 09:12:55;;;;;;;6.47;3.20;;;;;;;10.30;62.88;100999.31;4983628;28;20053;-79
2022/03/14 09:15:23;;;;;;;5.38;2.58;;;;;;;10.32;62.89;101000.06;4997789;28;20065;-79
2022/03/14 09:17:51;;;;;;;4.38;2.55;;;;;;;10.33;62.61;101004.44;4990521;28;20034;-79
2022/03/14 09:20:21;;;;;;;8.20;2.75;;;;;;;10.34;62.84;101011.44;4994795;28;20133;-79
2022/03/14 09:22:48;;;;;;;7.65;2.80;;;;;;;10.39;62.51;101001.34;4997858;28;20049;-79
2022/03/14 09:25:15;;;;;;;8.65;2.97;;;;;;;10.45;62.79;100997.41;5000840;28;20045;-79
2022/03/14 09:27:42;;;;;;;10.13;2.88;;;;;;;10.42;62.54;100994.97;4982610;28;20100;-79
2022/03/14 09:30:12;;;;;;;8.00;3.42;;;;;;;10.43;62.25;100997.53;4993725;28;20499;-79
2022/03/14 09:32:39;;;;;;;8.70;3.58;;;;;;;10.49;62.55;101000.72;4981355;28;20072;-79
2022/03/14 09:35:08;;;;;;;10.13;4.75;;;;;;;10.49;62.75;101006.03;4999907;28;20060;-79
2022/03/14 09:37:36;;;;;;;7.63;3.00;;;;;;;10.52;62.30;101011.13;5005181;28;20057;-78
2022/03/14 09:40:05;;;;;;;10.23;3.72;;;;;;;10.50;62.32;101005.06;4986966;28;20073;-80
2022/03/14 09:42:35;;;;;;;5.07;2.90;;;;;;;10.47;62.05;101014.09;5022144;28;20448;-79
2022/03/14 09:45:04;;;;;;;8.57;3.53;;;;;;;10.52;62.66;101014.63;4987867;28;20099;-79
2022/03/14 09:47:36;;;;;;;9.57;3.90;;;;;;;10.45;62.77;101015.16;4990926;28;20532;-79
2022/03/14 09:50:15;;;;;;;9.35;4.53;;;;;;;10.49;62.13;101022.81;4987395;28;20045;-79
2022/03/14 09:52:43;;;;;;;10.05;4.32;;;;;;;10.48;62.30;101025.56;4981751;28;20046;-79
2022/03/14 09:55:11;;;;;;;12.52;4.30;;;;;;;10.49;62.45;101032.59;4992665;28;20042;-80
2022/03/14 09:57:39;;;;;;;12.98;4.25;;;;;;;10.50;62.09;101036.94;5007248;28;20050;-79
2022/03/14 10:00:10;;;;;;;6.95;4.47;;;;;;;10.46;62.13;101031.00;4980503;28;20098;-78
2022/03/14 10:02:40;;;;;;;13.55;4.60;;;;;;;10.43;62.18;101033.84;4999756;28;20046;-79
2022/03/14 10:05:08;;;;;;;6.35;3.80;;;;;;;10.46;62.28;101038.97;4987336;28;20085;-79
2022/03/14 10:07:35;;;;;;;9.27;3.65;;;;;;;10.49;62.10;101040.56;4983107;28;20037;-79
2022/03/14 10:10:06;;;;;;;10.98;4.18;;;;;;;10.46;61.95;101033.66;4988936;28;20056;-79
2022/03/14 10:12:33;;;;;;;7.18;4.00;;;;;;;10.49;62.03;101037.91;4984712;28;20719;-78
2022/03/14 10:15:01;;;;;;;6.05;3.53;;;;;;;10.56;61.66;101029.41;4997624;28;20050;-78
2022/03/14 10:17:28;;;;;;;6.97;3.75;;;;;;;10.58;62.21;101026.63;4986978;28;20536;-79
2022/03/14 10:19:57;;;;;;;14.57;4.05;;;;;;;10.64;62.12;101029.72;4999751;28;20046;-79
2022/03/14 10:22:24;;;;;;;8.95;4.05;;;;;;;10.70;61.49;101033.75;4993271;28;20045;-80
2022/03/14 10:25:03;;;;;;;6.25;3.58;;;;;;;10.71;60.54;101045.22;4994814;28;20200;-80
2022/03/14 10:27:33;;;;;;;7.00;3.67;;;;;;;10.74;60.61;101040.56;5033186;28;20042;-78
2022/03/14 10:30:03;;;;;;;11.25;4.07;;;;;;;10.78;60.12;101034.06;5049713;28;20629;-79
2022/03/14 10:32:30;;;;;;;7.10;3.15;;;;;;;10.77;59.90;101043.00;5030733;28;20063;-78
2022/03/14 10:35:07;;;;;;;8.35;3.47;;;;;;;10.76;60.06;101043.97;5051169;28;20065;-78
2022/03/14 10:37:35;;;;;;;9.27;2.70;;;;;;;10.85;60.25;101034.47;4988478;28;20396;-78
2022/03/14 10:40:05;;;;;;;4.97;2.30;;;;;;;10.95;59.50;101035.53;5042048;28;22139;-78
2022/03/14 10:42:43;;;;;;;7.47;2.28;;;;;;;10.85;59.22;101053.09;5014240;28;20499;-78
2022/03/14 10:45:12;;;;;;;5.63;2.60;;;;;;;10.89;59.03;101057.25;4976329;28;20131;-79
2022/03/14 10:47:57;;;;;;;10.57;3.28;;;;;;;10.81;59.01;101060.44;5028317;28;20045;-79
2022/03/14 10:50:28;;;;;;;8.63;2.63;;;;;;;10.84;58.70;101075.31;5036851;28;20088;-78
2022/03/14 10:53:18;;;;;;;9.80;2.40;;;;;;;10.69;59.17;101074.56;5017734;28;20042;-79
2022/03/14 10:55:49;;;;;;;5.75;2.40;;;;;;;10.73;59.08;101067.22;5015028;28;20045;-79
2022/03/14 10:58:18;;;;;;;6.40;2.47;;;;;;;10.74;58.97;101066.28;5013439;28;20148;-79
2022/03/14 11:00:51;;;;;;;7.80;2.30;;;;;;;10.71;58.93;101072.66;5026447;28;20567;-79
2022/03/14 11:03:26;;;;;;;6.43;2.15;;;;;;;10.71;59.06;101075.31;4987734;28;20056;-79
2022/03/14 11:06:00;;;;;;;5.28;2.33;;;;;;;10.75;59.41;101073.28;5020856;28;20076;-79
2022/03/14 11:08:29;;;;;;;8.27;2.60;;;;;;;10.78;59.08;101073.91;5061755;28;20041;-80
2022/03/14 11:10:57;;;;;;;6.65;2.65;;;;;;;10.82;59.09;101080.72;5026878;28;20045;-79
2022/03/14 11:13:26;;;;;;;9.68;2.90;;;;;;;10.83;59.26;101078.91;5004138;28;20041;-80
2022/03/14 11:15:53;;;;;;;6.53;2.60;;;;;;;10.90;59.06;101076.69;4974334;28;20137;-79
2022/03/14 11:18:21;;;;;;;5.82;2.92;;;;;;;10.87;59.33;101083.06;4992781;28;20153;-81
2022/03/14 11:20:48;;;;;;;5.95;2.10;;;;;;;10.99;59.22;101074.22;4990370;28;22656;-81
2022/03/14 11:23:14;;;;;;;8.55;1.85;;;;;;;10.92;59.19;101072.97;4996442;28;20050;-81
2022/03/14 11:25:45;;;;;;;5.30;1.80;;;;;;;10.93;58.96;101071.16;4977651;28;20057;-82